sensor_id;sensor_type;location;lat;lon;timestamp;temperature;humidity
1297;DHT22;641;48.492;9.184;2022-07-29T00:00:13;22.30;99.90
1297;DHT22;641;48.492;9.184;2022-07-29T00:02:38;22.40;99.90
1297;DHT22;641;48.492;9.184;2022-07-29T00:05:04;22.40;99.90
1297;DHT22;641;48.492;9.184;2022-07-29T00:07:30;22.40;99.90
1297;DHT22;641;48.492;9.184;2022-07-29T00:09:56;22.40;99.90
1297;DHT22;641;48.492;9.184;2022-07-29T00:12:24;22.70;99.90
1297;DHT22;641;48.492;9.184;2022-07-29T00:14:50;22.40;99.90
1297;DHT22;641;48.492;9.184;2022-07-29T00:17:15;22.10;99.90
1297;DHT22;641;48.492;9.184;2022-07-29T00:19:41;22.10;99.90
1297;DHT22;641;48.492;9.184;2022-07-29T00:22:06;22.00;99.90
1297;DHT22;641;48.492;9.184;2022-07-29T00:24:32;21.90;99.90
1297;DHT22;641;48.492;9.184;2022-07-29T00:26:58;21.90;99.90
1297;DHT22;641;48.492;9.184;2022-07-29T00:29:23;21.90;99.90
1297;DHT22;641;48.492;9.184;2022-07-29T00:31:49;21.80;99.90
1297;DHT22;641;48.492;9.184;2022-07-29T00:34:15;21.60;99.90
1297;DHT22;641;48.492;9.184;2022-07-29T00:36:59;21.60;99.90
1297;DHT22;641;48.492;9.184;2022-07-29T00:39:25;21.70;99.90
1297;DHT22;641;48.492;9.184;2022-07-29T00:41:50;21.70;99.90
1297;DHT22;641;48.492;9.184;2022-07-29T00:44:16;22.00;99.90
1297;DHT22;641;48.492;9.184;2022-07-29T00:46:42;21.60;99.90
1297;DHT22;641;48.492;9.184;2022-07-29T00:49:08;21.40;99.90
1297;DHT22;641;48.492;9.184;2022-07-29T00:51:37;21.30;99.90
1297;DHT22;641;48.492;9.184;2022-07-29T00:54:03;21.20;99.90
1297;DHT22;641;48.492;9.184;2022-07-29T00:56:32;21.20;99.90
1297;DHT22;641;48.492;9.184;2022-07-29T00:58:59;21.20;99.90
1297;DHT22;641;48.492;9.184;2022-07-29T01:01:25;21.20;99.90
1297;DHT22;641;48.492;9.184;2022-07-29T01:03:51;21.40;99.90
1297;DHT22;641;48.492;9.184;2022-07-29T01:06:18;21.20;99.90
1297;DHT22;641;48.492;9.184;2022-07-29T01:08:47;21.20;99.90
1297;DHT22;641;48.492;9.184;2022-07-29T01:11:14;21.20;99.90
1297;DHT22;641;48.492;9.184;2022-07-29T01:13:42;21.50;99.90
1297;DHT22;641;48.492;9.184;2022-07-29T01:16:23;21.20;99.90
1297;DHT22;641;48.492;9.184;2022-07-29T01:18:55;21.30;99.90
1297;DHT22;641;48.492;9.184;2022-07-29T01:21:27;21.20;99.90
1297;DHT22;641;48.492;9.184;2022-07-29T01:27:09;21.20;99.90
1297;DHT22;641;48.492;9.184;2022-07-29T01:29:45;21.20;99.90
1297;DHT22;641;48.492;9.184;2022-07-29T01:32:21;21.30;99.90
1297;DHT22;641;48.492;9.184;2022-07-29T01:37:24;21.40;99.90
1297;DHT22;641;48.492;9.184;2022-07-29T01:39:54;21.50;99.90
1297;DHT22;641;48.492;9.184;2022-07-29T01:42:39;21.50;99.90
1297;DHT22;641;48.492;9.184;2022-07-29T01:48:16;21.50;99.90
1297;DHT22;641;48.492;9.184;2022-07-29T01:50:58;21.50;99.90
1297;DHT22;641;48.492;9.184;2022-07-29T01:53:35;21.50;99.90
1297;DHT22;641;48.492;9.184;2022-07-29T01:56:03;21.50;99.90
1297;DHT22;641;48.492;9.184;2022-07-29T01:58:31;21.60;99.90
1297;DHT22;641;48.492;9.184;2022-07-29T02:00:58;21.60;99.90
1297;DHT22;641;48.492;9.184;2022-07-29T02:03:25;21.60;99.90
1297;DHT22;641;48.492;9.184;2022-07-29T02:05:53;21.60;99.90
1297;DHT22;641;48.492;9.184;2022-07-29T02:08:20;21.60;99.90
1297;DHT22;641;48.492;9.184;2022-07-29T02:10:48;21.60;99.90
1297;DHT22;641;48.492;9.184;2022-07-29T02:13:16;21.60;99.90
1297;DHT22;641;48.492;9.184;2022-07-29T02:15:44;21.60;99.90
1297;DHT22;641;48.492;9.184;2022-07-29T02:18:17;21.60;99.90
1297;DHT22;641;48.492;9.184;2022-07-29T02:20:49;21.50;99.90
1297;DHT22;641;48.492;9.184;2022-07-29T02:23:19;21.50;99.90
1297;DHT22;641;48.492;9.184;2022-07-29T02:25:49;21.50;99.90
1297;DHT22;641;48.492;9.184;2022-07-29T02:28:17;21.50;99.90
1297;DHT22;641;48.492;9.184;2022-07-29T02:30:43;21.50;99.90
1297;DHT22;641;48.492;9.184;2022-07-29T02:33:12;21.50;99.90
1297;DHT22;641;48.492;9.184;2022-07-29T02:35:40;21.50;99.90
1297;DHT22;641;48.492;9.184;2022-07-29T02:38:08;21.50;99.90
1297;DHT22;641;48.492;9.184;2022-07-29T02:40:53;21.50;99.90
1297;DHT22;641;48.492;9.184;2022-07-29T02:43:22;21.40;99.90
1297;DHT22;641;48.492;9.184;2022-07-29T02:45:51;21.40;99.90
1297;DHT22;641;48.492;9.184;2022-07-29T02:48:19;21.40;99.90
1297;DHT22;641;48.492;9.184;2022-07-29T02:50:51;21.30;99.90
1297;DHT22;641;48.492;9.184;2022-07-29T02:53:21;21.30;99.90
1297;DHT22;641;48.492;9.184;2022-07-29T02:55:59;21.30;99.90
1297;DHT22;641;48.492;9.184;2022-07-29T02:58:42;21.30;99.90
1297;DHT22;641;48.492;9.184;2022-07-29T03:01:16;21.30;99.90
1297;DHT22;641;48.492;9.184;2022-07-29T03:03:46;21.30;99.90
1297;DHT22;641;48.492;9.184;2022-07-29T03:06:14;21.30;99.90
1297;DHT22;641;48.492;9.184;2022-07-29T03:08:41;21.20;99.90
1297;DHT22;641;48.492;9.184;2022-07-29T03:11:08;21.10;99.90
1297;DHT22;641;48.492;9.184;2022-07-29T03:13:35;21.10;99.90
1297;DHT22;641;48.492;9.184;2022-07-29T03:16:01;21.00;99.90
1297;DHT22;641;48.492;9.184;2022-07-29T03:18:27;21.00;99.90
1297;DHT22;641;48.492;9.184;2022-07-29T03:20:53;21.00;99.90
1297;DHT22;641;48.492;9.184;2022-07-29T03:23:20;20.90;99.90
1297;DHT22;641;48.492;9.184;2022-07-29T03:25:48;20.80;99.90
1297;DHT22;641;48.492;9.184;2022-07-29T03:28:14;20.60;99.90
1297;DHT22;641;48.492;9.184;2022-07-29T03:30:39;20.60;99.90
1297;DHT22;641;48.492;9.184;2022-07-29T03:33:05;20.70;99.90
1297;DHT22;641;48.492;9.184;2022-07-29T03:35:31;21.10;99.90
1297;DHT22;641;48.492;9.184;2022-07-29T03:37:57;20.70;99.90
1297;DHT22;641;48.492;9.184;2022-07-29T03:40:33;20.70;99.90
1297;DHT22;641;48.492;9.184;2022-07-29T03:43:02;20.70;99.90
1297;DHT22;641;48.492;9.184;2022-07-29T03:45:30;20.70;99.90
1297;DHT22;641;48.492;9.184;2022-07-29T03:48:10;20.70;99.90
1297;DHT22;641;48.492;9.184;2022-07-29T03:50:38;20.70;99.90
1297;DHT22;641;48.492;9.184;2022-07-29T03:53:03;20.70;99.90
1297;DHT22;641;48.492;9.184;2022-07-29T03:55:33;20.70;99.90
1297;DHT22;641;48.492;9.184;2022-07-29T03:58:02;20.70;99.90
1297;DHT22;641;48.492;9.184;2022-07-29T04:00:28;20.70;99.90
1297;DHT22;641;48.492;9.184;2022-07-29T04:02:56;20.60;99.90
1297;DHT22;641;48.492;9.184;2022-07-29T04:05:21;20.60;99.90
1297;DHT22;641;48.492;9.184;2022-07-29T04:11:09;20.70;99.90
1297;DHT22;641;48.492;9.184;2022-07-29T04:13:35;21.00;99.90
1297;DHT22;641;48.492;9.184;2022-07-29T04:16:00;20.60;99.90
1297;DHT22;641;48.492;9.184;2022-07-29T04:18:26;20.60;99.90
1297;DHT22;641;48.492;9.184;2022-07-29T04:20:51;20.50;99.90
1297;DHT22;641;48.492;9.184;2022-07-29T04:23:17;20.50;99.90
1297;DHT22;641;48.492;9.184;2022-07-29T04:25:43;20.50;99.90
1297;DHT22;641;48.492;9.184;2022-07-29T04:28:09;20.50;99.90
1297;DHT22;641;48.492;9.184;2022-07-29T04:30:36;20.50;99.90
1297;DHT22;641;48.492;9.184;2022-07-29T04:33:03;20.90;99.90
1297;DHT22;641;48.492;9.184;2022-07-29T04:35:34;20.50;99.90
1297;DHT22;641;48.492;9.184;2022-07-29T04:38:00;20.40;99.90
1297;DHT22;641;48.492;9.184;2022-07-29T04:40:27;20.30;99.90
1297;DHT22;641;48.492;9.184;2022-07-29T04:42:52;20.20;99.90
1297;DHT22;641;48.492;9.184;2022-07-29T04:45:18;20.20;99.90
1297;DHT22;641;48.492;9.184;2022-07-29T04:47:44;20.10;99.90
1297;DHT22;641;48.492;9.184;2022-07-29T04:50:10;20.10;99.90
1297;DHT22;641;48.492;9.184;2022-07-29T04:52:35;20.20;99.90
1297;DHT22;641;48.492;9.184;2022-07-29T04:55:02;20.20;99.90
1297;DHT22;641;48.492;9.184;2022-07-29T04:57:28;20.20;99.90
1297;DHT22;641;48.492;9.184;2022-07-29T04:59:54;20.30;99.90
1297;DHT22;641;48.492;9.184;2022-07-29T05:02:19;20.10;99.90
1297;DHT22;641;48.492;9.184;2022-07-29T05:04:45;20.10;99.90
1297;DHT22;641;48.492;9.184;2022-07-29T05:07:10;20.10;99.90
1297;DHT22;641;48.492;9.184;2022-07-29T05:09:36;20.10;99.90
1297;DHT22;641;48.492;9.184;2022-07-29T05:12:02;20.20;99.90
1297;DHT22;641;48.492;9.184;2022-07-29T05:14:27;20.20;99.90
1297;DHT22;641;48.492;9.184;2022-07-29T05:16:53;20.20;99.90
1297;DHT22;641;48.492;9.184;2022-07-29T05:19:22;20.20;99.90
1297;DHT22;641;48.492;9.184;2022-07-29T05:21:47;20.30;99.90
1297;DHT22;641;48.492;9.184;2022-07-29T05:24:13;20.40;99.90
1297;DHT22;641;48.492;9.184;2022-07-29T05:26:39;20.40;99.90
1297;DHT22;641;48.492;9.184;2022-07-29T05:29:05;20.50;99.90
1297;DHT22;641;48.492;9.184;2022-07-29T05:31:30;20.50;99.90
1297;DHT22;641;48.492;9.184;2022-07-29T05:33:56;20.50;99.90
1297;DHT22;641;48.492;9.184;2022-07-29T05:36:22;20.60;99.90
1297;DHT22;641;48.492;9.184;2022-07-29T05:38:47;20.70;99.90
1297;DHT22;641;48.492;9.184;2022-07-29T05:41:13;20.70;99.90
1297;DHT22;641;48.492;9.184;2022-07-29T05:43:38;20.90;99.90
1297;DHT22;641;48.492;9.184;2022-07-29T05:46:04;20.70;99.90
1297;DHT22;641;48.492;9.184;2022-07-29T05:48:30;20.80;99.90
1297;DHT22;641;48.492;9.184;2022-07-29T05:50:55;21.00;99.90
1297;DHT22;641;48.492;9.184;2022-07-29T05:53:21;21.20;99.90
1297;DHT22;641;48.492;9.184;2022-07-29T05:55:47;21.40;99.90
1297;DHT22;641;48.492;9.184;2022-07-29T05:58:13;21.50;99.90
1297;DHT22;641;48.492;9.184;2022-07-29T06:00:39;21.60;99.90
1297;DHT22;641;48.492;9.184;2022-07-29T06:03:05;21.80;99.90
1297;DHT22;641;48.492;9.184;2022-07-29T06:05:30;21.90;99.90
1297;DHT22;641;48.492;9.184;2022-07-29T06:07:56;22.00;99.90
1297;DHT22;641;48.492;9.184;2022-07-29T06:10:22;22.10;99.90
1297;DHT22;641;48.492;9.184;2022-07-29T06:12:47;22.00;99.90
1297;DHT22;641;48.492;9.184;2022-07-29T06:15:13;22.10;99.90
1297;DHT22;641;48.492;9.184;2022-07-29T06:17:39;22.20;99.90
1297;DHT22;641;48.492;9.184;2022-07-29T06:20:05;22.20;99.90
1297;DHT22;641;48.492;9.184;2022-07-29T06:24:56;22.20;99.90
1297;DHT22;641;48.492;9.184;2022-07-29T06:27:22;22.50;99.90
1297;DHT22;641;48.492;9.184;2022-07-29T06:29:47;22.40;99.90
1297;DHT22;641;48.492;9.184;2022-07-29T06:32:13;22.30;99.90
1297;DHT22;641;48.492;9.184;2022-07-29T06:34:39;22.40;99.90
1297;DHT22;641;48.492;9.184;2022-07-29T06:37:08;22.40;99.90
1297;DHT22;641;48.492;9.184;2022-07-29T06:39:37;22.80;99.90
1297;DHT22;641;48.492;9.184;2022-07-29T06:42:06;22.50;99.90
1297;DHT22;641;48.492;9.184;2022-07-29T06:44:32;22.40;99.90
1297;DHT22;641;48.492;9.184;2022-07-29T06:47:01;22.50;99.90
1297;DHT22;641;48.492;9.184;2022-07-29T06:49:26;22.60;99.90
1297;DHT22;641;48.492;9.184;2022-07-29T06:51:53;22.70;99.90
1297;DHT22;641;48.492;9.184;2022-07-29T06:54:19;22.60;99.90
1297;DHT22;641;48.492;9.184;2022-07-29T06:56:45;22.60;99.90
1297;DHT22;641;48.492;9.184;2022-07-29T06:59:12;22.80;99.90
1297;DHT22;641;48.492;9.184;2022-07-29T07:01:40;23.20;99.90
1297;DHT22;641;48.492;9.184;2022-07-29T07:04:06;23.10;99.90
1297;DHT22;641;48.492;9.184;2022-07-29T07:06:34;23.10;99.90
1297;DHT22;641;48.492;9.184;2022-07-29T07:08:59;23.20;99.90
1297;DHT22;641;48.492;9.184;2022-07-29T07:11:25;23.20;99.90
1297;DHT22;641;48.492;9.184;2022-07-29T07:13:50;23.40;99.90
1297;DHT22;641;48.492;9.184;2022-07-29T07:16:16;23.60;99.90
1297;DHT22;641;48.492;9.184;2022-07-29T07:18:42;23.80;99.90
1297;DHT22;641;48.492;9.184;2022-07-29T07:21:07;23.80;99.90
1297;DHT22;641;48.492;9.184;2022-07-29T07:23:33;23.90;99.90
1297;DHT22;641;48.492;9.184;2022-07-29T07:25:59;24.00;99.90
1297;DHT22;641;48.492;9.184;2022-07-29T07:28:24;24.10;99.90
1297;DHT22;641;48.492;9.184;2022-07-29T07:30:50;24.20;99.90
1297;DHT22;641;48.492;9.184;2022-07-29T07:33:16;24.30;99.90
1297;DHT22;641;48.492;9.184;2022-07-29T07:35:41;24.40;99.90
1297;DHT22;641;48.492;9.184;2022-07-29T07:38:07;24.50;99.90
1297;DHT22;641;48.492;9.184;2022-07-29T07:40:33;24.60;99.90
1297;DHT22;641;48.492;9.184;2022-07-29T07:42:58;24.70;99.90
1297;DHT22;641;48.492;9.184;2022-07-29T07:45:24;24.80;99.90
1297;DHT22;641;48.492;9.184;2022-07-29T07:47:50;24.80;99.90
1297;DHT22;641;48.492;9.184;2022-07-29T07:50:15;24.80;99.90
1297;DHT22;641;48.492;9.184;2022-07-29T07:52:54;24.90;99.90
1297;DHT22;641;48.492;9.184;2022-07-29T07:55:20;24.90;99.90
1297;DHT22;641;48.492;9.184;2022-07-29T07:57:46;24.90;99.90
1297;DHT22;641;48.492;9.184;2022-07-29T08:00:16;25.10;99.90
1297;DHT22;641;48.492;9.184;2022-07-29T08:02:42;25.20;99.90
1297;DHT22;641;48.492;9.184;2022-07-29T08:05:08;25.30;99.90
1297;DHT22;641;48.492;9.184;2022-07-29T08:07:34;25.40;99.90
1297;DHT22;641;48.492;9.184;2022-07-29T08:10:00;25.50;99.90
1297;DHT22;641;48.492;9.184;2022-07-29T08:12:25;25.60;99.90
1297;DHT22;641;48.492;9.184;2022-07-29T08:14:51;25.70;99.90
1297;DHT22;641;48.492;9.184;2022-07-29T08:17:17;25.80;99.30
1297;DHT22;641;48.492;9.184;2022-07-29T08:19:42;25.60;99.20
1297;DHT22;641;48.492;9.184;2022-07-29T08:22:08;25.80;99.80
1297;DHT22;641;48.492;9.184;2022-07-29T08:24:33;26.00;99.50
1297;DHT22;641;48.492;9.184;2022-07-29T08:27:09;26.00;97.90
1297;DHT22;641;48.492;9.184;2022-07-29T08:29:34;26.10;98.50
1297;DHT22;641;48.492;9.184;2022-07-29T08:32:00;26.20;97.50
1297;DHT22;641;48.492;9.184;2022-07-29T08:34:26;26.10;97.00
1297;DHT22;641;48.492;9.184;2022-07-29T08:36:52;26.20;96.70
1297;DHT22;641;48.492;9.184;2022-07-29T08:39:18;26.20;96.50
1297;DHT22;641;48.492;9.184;2022-07-29T08:41:43;26.30;96.50
1297;DHT22;641;48.492;9.184;2022-07-29T08:44:09;26.40;96.30
1297;DHT22;641;48.492;9.184;2022-07-29T08:46:38;26.40;96.00
1297;DHT22;641;48.492;9.184;2022-07-29T08:51:30;26.60;96.70
1297;DHT22;641;48.492;9.184;2022-07-29T08:53:57;26.70;96.70
1297;DHT22;641;48.492;9.184;2022-07-29T08:56:24;26.90;95.80
1297;DHT22;641;48.492;9.184;2022-07-29T08:58:49;27.00;95.60
1297;DHT22;641;48.492;9.184;2022-07-29T09:01:17;27.20;96.10
1297;DHT22;641;48.492;9.184;2022-07-29T09:03:46;27.20;96.40
1297;DHT22;641;48.492;9.184;2022-07-29T09:06:18;27.30;94.80
1297;DHT22;641;48.492;9.184;2022-07-29T09:08:45;27.20;93.70
1297;DHT22;641;48.492;9.184;2022-07-29T09:11:11;27.20;94.00
1297;DHT22;641;48.492;9.184;2022-07-29T09:13:38;27.00;93.80
1297;DHT22;641;48.492;9.184;2022-07-29T09:16:04;27.10;95.20
1297;DHT22;641;48.492;9.184;2022-07-29T09:18:38;27.10;93.80
1297;DHT22;641;48.492;9.184;2022-07-29T09:21:06;27.00;94.00
1297;DHT22;641;48.492;9.184;2022-07-29T09:24:06;27.00;94.10
1297;DHT22;641;48.492;9.184;2022-07-29T09:26:39;27.10;95.20
1297;DHT22;641;48.492;9.184;2022-07-29T09:29:12;27.20;94.20
1297;DHT22;641;48.492;9.184;2022-07-29T09:31:44;27.10;93.70
1297;DHT22;641;48.492;9.184;2022-07-29T09:34:11;27.10;94.20
1297;DHT22;641;48.492;9.184;2022-07-29T09:36:46;27.30;94.30
1297;DHT22;641;48.492;9.184;2022-07-29T09:39:12;27.40;93.30
1297;DHT22;641;48.492;9.184;2022-07-29T09:41:50;27.40;93.50
1297;DHT22;641;48.492;9.184;2022-07-29T09:44:19;27.60;95.00
1297;DHT22;641;48.492;9.184;2022-07-29T09:46:58;27.80;93.10
1297;DHT22;641;48.492;9.184;2022-07-29T09:49:27;27.80;92.80
1297;DHT22;641;48.492;9.184;2022-07-29T09:54:27;27.80;93.40
1297;DHT22;641;48.492;9.184;2022-07-29T09:56:54;28.00;92.20
1297;DHT22;641;48.492;9.184;2022-07-29T09:59:20;28.10;91.90
1297;DHT22;641;48.492;9.184;2022-07-29T10:01:48;28.20;92.90
1297;DHT22;641;48.492;9.184;2022-07-29T10:04:15;28.20;91.70
1297;DHT22;641;48.492;9.184;2022-07-29T10:07:01;28.00;92.10
1297;DHT22;641;48.492;9.184;2022-07-29T10:09:27;27.90;92.50
1297;DHT22;641;48.492;9.184;2022-07-29T10:12:10;28.10;92.40
1297;DHT22;641;48.492;9.184;2022-07-29T10:14:37;28.30;92.30
1297;DHT22;641;48.492;9.184;2022-07-29T10:17:04;28.30;91.00
1297;DHT22;641;48.492;9.184;2022-07-29T10:19:30;28.10;92.00
1297;DHT22;641;48.492;9.184;2022-07-29T10:22:03;28.10;91.70
1297;DHT22;641;48.492;9.184;2022-07-29T10:24:31;28.10;91.80
1297;DHT22;641;48.492;9.184;2022-07-29T10:27:01;28.20;91.80
1297;DHT22;641;48.492;9.184;2022-07-29T10:29:28;28.20;91.60
1297;DHT22;641;48.492;9.184;2022-07-29T10:32:28;28.20;90.90
1297;DHT22;641;48.492;9.184;2022-07-29T10:38:07;28.40;91.30
1297;DHT22;641;48.492;9.184;2022-07-29T10:44:03;28.70;89.20
1297;DHT22;641;48.492;9.184;2022-07-29T10:46:36;28.20;90.70
1297;DHT22;641;48.492;9.184;2022-07-29T10:59:38;28.80;89.20
1297;DHT22;641;48.492;9.184;2022-07-29T11:07:29;29.20;90.10
1297;DHT22;641;48.492;9.184;2022-07-29T11:15:08;29.40;87.90
1297;DHT22;641;48.492;9.184;2022-07-29T11:20:51;29.60;90.30
1297;DHT22;641;48.492;9.184;2022-07-29T11:23:32;30.00;89.00
1297;DHT22;641;48.492;9.184;2022-07-29T11:34:29;29.70;85.30
1297;DHT22;641;48.492;9.184;2022-07-29T11:39:47;29.50;84.60
1297;DHT22;641;48.492;9.184;2022-07-29T11:47:33;28.10;90.10
1297;DHT22;641;48.492;9.184;2022-07-29T11:50:00;28.00;90.40
1297;DHT22;641;48.492;9.184;2022-07-29T11:52:46;28.10;91.10
1297;DHT22;641;48.492;9.184;2022-07-29T11:55:23;27.90;90.10
1297;DHT22;641;48.492;9.184;2022-07-29T11:57:57;28.00;90.80
1297;DHT22;641;48.492;9.184;2022-07-29T12:00:33;28.10;91.50
1297;DHT22;641;48.492;9.184;2022-07-29T12:03:02;28.30;91.20
1297;DHT22;641;48.492;9.184;2022-07-29T12:05:38;28.40;91.30
1297;DHT22;641;48.492;9.184;2022-07-29T12:08:24;28.40;90.30
1297;DHT22;641;48.492;9.184;2022-07-29T12:10:52;28.20;91.30
1297;DHT22;641;48.492;9.184;2022-07-29T12:13:21;28.10;91.80
1297;DHT22;641;48.492;9.184;2022-07-29T12:15:57;27.50;92.70
1297;DHT22;641;48.492;9.184;2022-07-29T12:18:24;26.90;93.40
1297;DHT22;641;48.492;9.184;2022-07-29T12:20:58;26.80;94.30
1297;DHT22;641;48.492;9.184;2022-07-29T12:23:24;26.30;94.40
1297;DHT22;641;48.492;9.184;2022-07-29T12:25:49;25.80;95.30
1297;DHT22;641;48.492;9.184;2022-07-29T12:28:16;25.80;96.50
1297;DHT22;641;48.492;9.184;2022-07-29T12:30:50;25.40;97.20
1297;DHT22;641;48.492;9.184;2022-07-29T12:33:23;25.00;98.20
1297;DHT22;641;48.492;9.184;2022-07-29T12:36:09;25.30;97.40
1297;DHT22;641;48.492;9.184;2022-07-29T12:38:35;25.40;97.60
1297;DHT22;641;48.492;9.184;2022-07-29T12:41:01;25.50;97.00
1297;DHT22;641;48.492;9.184;2022-07-29T12:43:29;25.80;96.10
1297;DHT22;641;48.492;9.184;2022-07-29T12:45:56;25.80;95.90
1297;DHT22;641;48.492;9.184;2022-07-29T12:48:36;26.00;95.50
1297;DHT22;641;48.492;9.184;2022-07-29T12:51:03;26.00;95.20
1297;DHT22;641;48.492;9.184;2022-07-29T12:53:29;26.20;95.70
1297;DHT22;641;48.492;9.184;2022-07-29T12:55:56;26.30;95.00
1297;DHT22;641;48.492;9.184;2022-07-29T12:58:41;26.50;95.80
1297;DHT22;641;48.492;9.184;2022-07-29T13:01:11;26.80;96.30
1297;DHT22;641;48.492;9.184;2022-07-29T13:03:57;26.90;96.50
1297;DHT22;641;48.492;9.184;2022-07-29T13:09:00;27.30;96.20
1297;DHT22;641;48.492;9.184;2022-07-29T13:11:28;27.40;96.10
1297;DHT22;641;48.492;9.184;2022-07-29T13:13:54;27.50;95.80
1297;DHT22;641;48.492;9.184;2022-07-29T13:16:19;27.50;95.80
1297;DHT22;641;48.492;9.184;2022-07-29T13:18:45;27.50;95.70
1297;DHT22;641;48.492;9.184;2022-07-29T13:21:12;27.50;95.70
1297;DHT22;641;48.492;9.184;2022-07-29T13:23:38;27.40;96.70
1297;DHT22;641;48.492;9.184;2022-07-29T13:26:10;27.40;96.10
1297;DHT22;641;48.492;9.184;2022-07-29T13:28:41;27.40;96.10
1297;DHT22;641;48.492;9.184;2022-07-29T13:31:07;27.50;96.50
1297;DHT22;641;48.492;9.184;2022-07-29T13:33:33;27.50;96.10
1297;DHT22;641;48.492;9.184;2022-07-29T13:35:58;27.50;97.00
1297;DHT22;641;48.492;9.184;2022-07-29T13:40:50;27.40;95.30
1297;DHT22;641;48.492;9.184;2022-07-29T13:43:16;27.30;94.80
1297;DHT22;641;48.492;9.184;2022-07-29T13:45:41;27.20;93.90
1297;DHT22;641;48.492;9.184;2022-07-29T13:48:07;27.00;94.30
1297;DHT22;641;48.492;9.184;2022-07-29T13:50:32;27.10;94.40
1297;DHT22;641;48.492;9.184;2022-07-29T13:52:58;27.20;95.50
1297;DHT22;641;48.492;9.184;2022-07-29T13:55:24;27.50;95.20
1297;DHT22;641;48.492;9.184;2022-07-29T13:57:50;27.60;94.20
1297;DHT22;641;48.492;9.184;2022-07-29T14:00:15;27.50;94.10
1297;DHT22;641;48.492;9.184;2022-07-29T14:02:41;27.50;93.90
1297;DHT22;641;48.492;9.184;2022-07-29T14:05:08;27.40;93.70
1297;DHT22;641;48.492;9.184;2022-07-29T14:07:35;27.30;94.60
1297;DHT22;641;48.492;9.184;2022-07-29T14:10:01;27.20;94.50
1297;DHT22;641;48.492;9.184;2022-07-29T14:12:26;27.10;94.70
1297;DHT22;641;48.492;9.184;2022-07-29T14:14:52;27.00;94.20
1297;DHT22;641;48.492;9.184;2022-07-29T14:17:17;26.80;92.70
1297;DHT22;641;48.492;9.184;2022-07-29T14:19:43;26.20;92.80
1297;DHT22;641;48.492;9.184;2022-07-29T14:22:08;26.30;94.10
1297;DHT22;641;48.492;9.184;2022-07-29T14:24:36;26.60;94.80
1297;DHT22;641;48.492;9.184;2022-07-29T14:27:03;26.80;94.70
1297;DHT22;641;48.492;9.184;2022-07-29T14:29:29;27.00;94.00
1297;DHT22;641;48.492;9.184;2022-07-29T14:31:54;27.00;93.30
1297;DHT22;641;48.492;9.184;2022-07-29T14:34:20;27.00;93.50
1297;DHT22;641;48.492;9.184;2022-07-29T14:36:46;27.20;93.60
1297;DHT22;641;48.492;9.184;2022-07-29T14:39:11;27.20;93.80
1297;DHT22;641;48.492;9.184;2022-07-29T14:41:37;27.30;94.10
1297;DHT22;641;48.492;9.184;2022-07-29T14:44:03;27.40;94.10
1297;DHT22;641;48.492;9.184;2022-07-29T14:46:29;27.40;93.90
1297;DHT22;641;48.492;9.184;2022-07-29T14:48:55;27.50;93.50
1297;DHT22;641;48.492;9.184;2022-07-29T14:51:20;27.50;93.30
1297;DHT22;641;48.492;9.184;2022-07-29T14:53:46;27.40;94.10
1297;DHT22;641;48.492;9.184;2022-07-29T14:58:38;27.50;94.10
1297;DHT22;641;48.492;9.184;2022-07-29T15:01:03;27.50;94.10
1297;DHT22;641;48.492;9.184;2022-07-29T15:03:30;27.50;94.20
1297;DHT22;641;48.492;9.184;2022-07-29T15:08:22;27.40;94.30
1297;DHT22;641;48.492;9.184;2022-07-29T15:10:48;27.40;94.70
1297;DHT22;641;48.492;9.184;2022-07-29T15:13:14;27.40;94.90
1297;DHT22;641;48.492;9.184;2022-07-29T15:15:39;27.40;94.90
1297;DHT22;641;48.492;9.184;2022-07-29T15:18:06;27.50;95.00
1297;DHT22;641;48.492;9.184;2022-07-29T15:20:32;27.50;94.70
1297;DHT22;641;48.492;9.184;2022-07-29T15:22:57;27.50;95.00
1297;DHT22;641;48.492;9.184;2022-07-29T15:25:24;27.50;95.30
1297;DHT22;641;48.492;9.184;2022-07-29T15:27:49;27.50;95.40
1297;DHT22;641;48.492;9.184;2022-07-29T15:30:15;27.60;94.90
1297;DHT22;641;48.492;9.184;2022-07-29T15:32:45;27.50;95.30
1297;DHT22;641;48.492;9.184;2022-07-29T15:35:11;27.50;94.70
1297;DHT22;641;48.492;9.184;2022-07-29T15:37:37;27.50;94.70
1297;DHT22;641;48.492;9.184;2022-07-29T15:40:05;27.60;95.10
1297;DHT22;641;48.492;9.184;2022-07-29T15:42:31;27.60;95.10
1297;DHT22;641;48.492;9.184;2022-07-29T15:44:57;27.60;95.10
1297;DHT22;641;48.492;9.184;2022-07-29T15:47:28;27.70;95.50
1297;DHT22;641;48.492;9.184;2022-07-29T15:49:53;27.60;95.50
1297;DHT22;641;48.492;9.184;2022-07-29T15:52:20;27.60;95.60
1297;DHT22;641;48.492;9.184;2022-07-29T15:54:45;27.60;95.60
1297;DHT22;641;48.492;9.184;2022-07-29T15:59:37;27.70;95.80
1297;DHT22;641;48.492;9.184;2022-07-29T16:02:03;27.70;95.80
1297;DHT22;641;48.492;9.184;2022-07-29T16:04:29;27.70;95.70
1297;DHT22;641;48.492;9.184;2022-07-29T16:06:55;27.80;95.80
1297;DHT22;641;48.492;9.184;2022-07-29T16:09:21;27.90;95.90
1297;DHT22;641;48.492;9.184;2022-07-29T16:11:47;28.00;95.30
1297;DHT22;641;48.492;9.184;2022-07-29T16:14:15;28.00;95.30
1297;DHT22;641;48.492;9.184;2022-07-29T16:16:41;28.10;95.50
1297;DHT22;641;48.492;9.184;2022-07-29T16:19:07;28.10;94.90
1297;DHT22;641;48.492;9.184;2022-07-29T16:21:34;28.00;95.00
1297;DHT22;641;48.492;9.184;2022-07-29T16:24:00;28.00;94.90
1297;DHT22;641;48.492;9.184;2022-07-29T16:26:26;28.10;94.60
1297;DHT22;641;48.492;9.184;2022-07-29T16:28:52;28.20;94.20
1297;DHT22;641;48.492;9.184;2022-07-29T16:31:18;28.20;93.20
1297;DHT22;641;48.492;9.184;2022-07-29T16:33:47;28.20;93.10
1297;DHT22;641;48.492;9.184;2022-07-29T16:36:12;28.20;93.50
1297;DHT22;641;48.492;9.184;2022-07-29T16:38:38;28.30;93.60
1297;DHT22;641;48.492;9.184;2022-07-29T16:41:03;28.30;93.80
1297;DHT22;641;48.492;9.184;2022-07-29T16:43:29;28.30;93.40
1297;DHT22;641;48.492;9.184;2022-07-29T16:45:54;28.30;93.90
1297;DHT22;641;48.492;9.184;2022-07-29T16:48:20;28.30;93.80
1297;DHT22;641;48.492;9.184;2022-07-29T16:50:46;28.30;93.30
1297;DHT22;641;48.492;9.184;2022-07-29T16:53:11;28.20;93.30
1297;DHT22;641;48.492;9.184;2022-07-29T16:55:37;28.20;93.10
1297;DHT22;641;48.492;9.184;2022-07-29T16:58:03;28.20;93.20
1297;DHT22;641;48.492;9.184;2022-07-29T17:00:29;28.10;93.00
1297;DHT22;641;48.492;9.184;2022-07-29T17:02:54;28.00;93.40
1297;DHT22;641;48.492;9.184;2022-07-29T17:05:20;28.00;93.70
1297;DHT22;641;48.492;9.184;2022-07-29T17:07:45;28.00;94.10
1297;DHT22;641;48.492;9.184;2022-07-29T17:10:12;27.90;93.90
1297;DHT22;641;48.492;9.184;2022-07-29T17:12:39;27.80;94.20
1297;DHT22;641;48.492;9.184;2022-07-29T17:15:06;27.80;94.30
1297;DHT22;641;48.492;9.184;2022-07-29T17:19:58;27.80;94.10
1297;DHT22;641;48.492;9.184;2022-07-29T17:22:24;27.80;94.40
1297;DHT22;641;48.492;9.184;2022-07-29T17:24:50;27.70;94.50
1297;DHT22;641;48.492;9.184;2022-07-29T17:27:16;27.70;94.30
1297;DHT22;641;48.492;9.184;2022-07-29T17:29:42;27.60;92.90
1297;DHT22;641;48.492;9.184;2022-07-29T17:32:09;27.60;93.80
1297;DHT22;641;48.492;9.184;2022-07-29T17:34:35;27.60;94.50
1297;DHT22;641;48.492;9.184;2022-07-29T17:37:02;27.50;94.80
1297;DHT22;641;48.492;9.184;2022-07-29T17:39:27;27.50;94.60
1297;DHT22;641;48.492;9.184;2022-07-29T17:41:53;27.40;92.40